createdAt,value
2023-03-20T00:00:26.670Z,32.88
2023-03-20T00:03:13.407Z,41.97
2023-03-20T00:05:59.297Z,32.55
2023-03-20T00:08:46.194Z,43.63
2023-03-20T00:11:37.205Z,40.35
2023-03-20T00:14:24.830Z,41.70
2023-03-20T00:17:18.237Z,39.38
2023-03-20T00:20:04.650Z,43.88
2023-03-20T00:22:51.266Z,39.60
2023-03-20T00:25:37.948Z,42.75
2023-03-20T00:28:50.321Z,41.20
2023-03-20T00:31:38.398Z,38.72
2023-03-20T00:34:27.376Z,35.25
2023-03-20T00:37:13.599Z,30.88
2023-03-20T00:39:59.736Z,36.00
2023-03-20T00:42:49.237Z,30.90
2023-03-20T00:45:36.323Z,30.67
2023-03-20T00:48:22.548Z,31.52
2023-03-20T00:51:09.702Z,36.95
2023-03-20T00:53:56.016Z,35.20
2023-03-20T00:56:55.086Z,33.40
2023-03-20T00:59:53.592Z,34.22
2023-03-20T01:02:39.757Z,35.33
2023-03-20T01:05:27.470Z,38.63
2023-03-20T01:08:22.501Z,37.63
2023-03-20T01:11:10.363Z,50.83
2023-03-20T01:13:56.288Z,51.05
2023-03-20T01:16:42.942Z,47.60
2023-03-20T01:19:29.357Z,41.38
2023-03-20T01:22:15.726Z,41.10
2023-03-20T01:25:02.707Z,38.47
2023-03-20T01:27:53.777Z,40.20
2023-03-20T01:30:39.973Z,40.15
2023-03-20T01:33:26.663Z,34.00
2023-03-20T01:36:16.130Z,34.00
2023-03-20T01:39:02.564Z,35.92
2023-03-20T01:41:49.050Z,30.10
2023-03-20T01:44:36.546Z,34.40
2023-03-20T01:47:26.116Z,33.47
2023-03-20T01:50:26.592Z,31.40
2023-03-20T01:53:34.531Z,33.72
2023-03-20T01:56:20.991Z,29.60
2023-03-20T01:59:18.609Z,32.28
2023-03-20T02:02:05.898Z,34.30
2023-03-20T02:04:55.658Z,30.85
2023-03-20T02:07:41.813Z,27.13
2023-03-20T02:10:29.508Z,29.35
2023-03-20T02:13:33.007Z,29.48
2023-03-20T02:16:20.138Z,29.23
2023-03-20T02:20:04.264Z,38.90
2023-03-20T02:23:26.071Z,32.65
2023-03-20T02:26:48.216Z,33.63
2023-03-20T02:29:43.102Z,30.88
2023-03-20T02:33:07.256Z,33.00
2023-03-20T02:36:24.509Z,23.55
2023-03-20T02:39:25.904Z,30.98
2023-03-20T02:42:18.772Z,30.42
2023-03-20T02:45:07.855Z,31.10
2023-03-20T02:48:20.532Z,26.27
2023-03-20T02:51:22.491Z,28.00
2023-03-20T02:54:21.533Z,23.63
2023-03-20T03:00:11.906Z,27.65
2023-03-20T03:03:20.994Z,23.02
2023-03-20T03:06:23.933Z,21.05
2023-03-20T03:12:05.572Z,22.42
2023-03-20T03:14:54.885Z,23.92
2023-03-20T03:17:43.289Z,26.13
2023-03-20T03:20:37.768Z,23.08
2023-03-20T03:23:29.569Z,24.23
2023-03-20T03:26:22.796Z,22.63
2023-03-20T03:29:15.871Z,24.90
2023-03-20T03:32:03.622Z,25.27
2023-03-20T03:34:50.279Z,24.98
2023-03-20T03:38:02.085Z,20.83
2023-03-20T03:40:58.824Z,20.90
2023-03-20T03:43:53.676Z,22.55
2023-03-20T03:46:58.232Z,23.27
2023-03-20T03:49:49.553Z,21.27
2023-03-20T03:52:36.678Z,20.60
2023-03-20T03:55:25.397Z,20.95
2023-03-20T03:58:43.239Z,27.42
2023-03-20T04:01:32.497Z,23.67
2023-03-20T04:04:20.567Z,28.23
2023-03-20T04:07:06.864Z,24.52
2023-03-20T04:09:52.591Z,26.58
2023-03-20T04:12:40.852Z,24.02
2023-03-20T04:15:29.369Z,21.38
2023-03-20T04:18:17.335Z,20.63
2023-03-20T04:21:05.303Z,21.80
2023-03-20T04:23:51.991Z,21.45
2023-03-20T04:26:40.535Z,21.02
2023-03-20T04:29:26.925Z,20.45
2023-03-20T04:32:32.989Z,20.52
2023-03-20T04:35:29.396Z,21.95
2023-03-20T04:38:18.396Z,24.27
2023-03-20T04:41:05.636Z,22.30
2023-03-20T04:43:51.976Z,24.58
2023-03-20T04:46:37.858Z,28.92
2023-03-20T04:49:29.569Z,30.63
2023-03-20T04:52:15.818Z,27.67
2023-03-20T04:55:03.676Z,27.58
2023-03-20T04:57:50.340Z,27.15
2023-03-20T05:00:36.321Z,21.67
2023-03-20T05:03:24.057Z,21.85
2023-03-20T05:06:10.694Z,24.95
2023-03-20T05:09:00.931Z,24.45
2023-03-20T05:11:49.370Z,26.90
2023-03-20T05:14:54.937Z,24.88
2023-03-20T05:17:56.696Z,25.20
2023-03-20T05:21:00.083Z,25.80
2023-03-20T05:24:07.528Z,26.58
2023-03-20T05:27:07.875Z,24.05
2023-03-20T05:30:23.182Z,32.97
2023-03-20T05:33:47.382Z,24.67
2023-03-20T05:36:44.995Z,25.17
2023-03-20T05:39:43.642Z,20.85
2023-03-20T05:42:58.852Z,24.70
2023-03-20T05:45:53.845Z,24.40
2023-03-20T05:48:49.408Z,30.02
2023-03-20T05:51:48.782Z,23.92
2023-03-20T05:54:47.571Z,27.67
2023-03-20T05:57:56.766Z,27.38
2023-03-20T06:01:01.146Z,31.67
2023-03-20T06:04:14.727Z,28.85
2023-03-20T06:07:29.799Z,32.83
2023-03-20T06:10:21.119Z,29.27
2023-03-20T06:13:08.859Z,24.75
2023-03-20T06:15:54.480Z,29.20
2023-03-20T06:18:41.938Z,29.98
2023-03-20T06:21:28.316Z,31.10
2023-03-20T06:24:15.035Z,34.70
2023-03-20T06:27:01.764Z,29.48
2023-03-20T06:29:48.037Z,33.78
2023-03-20T06:32:44.369Z,31.58
2023-03-20T06:35:31.671Z,28.15
2023-03-20T06:38:17.794Z,30.60
2023-03-20T06:41:03.903Z,30.85
2023-03-20T06:43:51.150Z,31.33
2023-03-20T06:46:39.094Z,41.22
2023-03-20T06:49:25.801Z,44.17
2023-03-20T06:52:17.317Z,39.35
2023-03-20T06:55:08.381Z,36.95
2023-03-20T06:57:54.074Z,33.83
2023-03-20T07:00:40.057Z,49.88
2023-03-20T07:03:28.541Z,38.90
2023-03-20T07:06:18.929Z,42.80
2023-03-20T07:09:05.602Z,49.65
2023-03-20T07:11:51.622Z,41.13
2023-03-20T07:14:37.436Z,47.33
2023-03-20T07:17:27.728Z,36.97
2023-03-20T07:20:14.302Z,31.13
2023-03-20T07:23:00.499Z,35.88
2023-03-20T07:25:49.895Z,36.28
2023-03-20T07:28:38.046Z,33.45
2023-03-20T07:31:32.512Z,28.38
2023-03-20T07:34:31.436Z,29.77
2023-03-20T07:37:19.638Z,29.67
2023-03-20T07:40:16.952Z,29.88
2023-03-20T07:43:29.145Z,28.40
2023-03-20T07:46:44.576Z,27.92
2023-03-20T07:49:30.867Z,28.52
2023-03-20T07:52:17.287Z,27.52
2023-03-20T07:55:03.313Z,30.52
2023-03-20T07:57:49.954Z,27.52
2023-03-20T08:00:37.385Z,30.65
2023-03-20T08:03:23.363Z,33.47
2023-03-20T08:06:10.110Z,32.00
2023-03-20T08:08:56.547Z,36.78
2023-03-20T08:11:42.794Z,50.13
2023-03-20T08:14:29.197Z,42.30
2023-03-20T08:17:18.017Z,41.72
2023-03-20T08:20:07.421Z,49.60
2023-03-20T08:22:53.462Z,38.08
2023-03-20T08:25:39.414Z,39.42
2023-03-20T08:28:44.115Z,47.05
2023-03-20T08:31:32.001Z,59.38
2023-03-20T08:34:18.109Z,43.15
2023-03-20T08:37:05.207Z,32.22
2023-03-20T08:39:51.316Z,43.25
2023-03-20T08:42:37.303Z,31.50
2023-03-20T08:45:26.237Z,46.58
2023-03-20T08:48:12.050Z,29.67
2023-03-20T08:50:58.036Z,33.65
2023-03-20T08:53:43.811Z,29.08
2023-03-20T08:56:29.713Z,37.28
2023-03-20T08:59:15.497Z,62.55
2023-03-20T09:02:01.513Z,50.05
2023-03-20T09:04:47.283Z,52.33
2023-03-20T09:07:33.147Z,37.05
2023-03-20T09:10:19.003Z,41.30
2023-03-20T09:13:23.412Z,31.20
2023-03-20T09:16:12.551Z,27.50
2023-03-20T09:18:59.813Z,30.92
2023-03-20T09:21:46.329Z,30.45
2023-03-20T09:24:33.069Z,22.20
2023-03-20T09:27:19.313Z,18.83
2023-03-20T09:30:09.399Z,23.58
2023-03-20T09:32:55.997Z,24.73
2023-03-20T09:35:43.641Z,31.25
2023-03-20T09:38:29.584Z,34.35
2023-03-20T09:41:26.139Z,22.88
2023-03-20T09:44:29.300Z,19.80
2023-03-20T09:47:28.074Z,25.92
2023-03-20T09:50:37.105Z,25.73
2023-03-20T09:53:37.077Z,19.73
2023-03-20T09:56:27.147Z,30.00
2023-03-20T09:59:15.541Z,35.83
2023-03-20T10:02:08.001Z,25.92
2023-03-20T10:04:55.016Z,26.85
2023-03-20T10:07:41.026Z,35.40
2023-03-20T10:10:48.031Z,34.70
2023-03-20T10:13:53.939Z,20.95
2023-03-20T10:17:05.276Z,32.95
2023-03-20T10:19:59.326Z,29.40
2023-03-20T10:22:48.776Z,27.25
2023-03-20T10:25:39.435Z,30.30
2023-03-20T10:28:36.789Z,28.23
2023-03-20T10:31:45.799Z,27.02
2023-03-20T10:35:13.398Z,27.90
2023-03-20T10:38:22.623Z,18.95
2023-03-20T10:41:15.323Z,16.77
2023-03-20T10:44:02.400Z,16.27
2023-03-20T10:46:52.996Z,16.48
2023-03-20T10:49:55.419Z,19.50
2023-03-20T10:52:41.853Z,16.98
2023-03-20T10:55:35.659Z,18.38
2023-03-20T10:58:24.208Z,17.17
2023-03-20T11:01:10.128Z,17.08
2023-03-20T11:03:56.537Z,16.55
2023-03-20T11:06:49.991Z,17.73
2023-03-20T11:09:36.417Z,18.23
2023-03-20T11:12:22.329Z,18.17
2023-03-20T11:15:27.045Z,17.58
2023-03-20T11:18:16.484Z,21.40
2023-03-20T11:21:03.702Z,20.50
2023-03-20T11:23:50.520Z,20.13
2023-03-20T11:26:38.812Z,15.73
2023-03-20T11:29:30.398Z,14.05
2023-03-20T11:32:27.160Z,17.05
2023-03-20T11:35:19.437Z,22.40
2023-03-20T11:38:17.707Z,17.48
2023-03-20T11:41:05.396Z,17.35
2023-03-20T11:43:51.333Z,22.42
2023-03-20T11:46:37.540Z,21.30
2023-03-20T11:49:30.368Z,27.63
2023-03-20T11:52:21.970Z,20.67
2023-03-20T11:55:24.969Z,19.92
2023-03-20T11:58:15.514Z,15.60
2023-03-20T12:01:02.276Z,13.73
2023-03-20T12:04:11.381Z,19.67
2023-03-20T12:07:05.100Z,15.52
2023-03-20T12:09:53.249Z,10.20
2023-03-20T12:12:47.791Z,12.40
2023-03-20T12:15:37.073Z,14.82
2023-03-20T12:18:27.142Z,12.07
2023-03-20T12:21:21.122Z,12.13
2023-03-20T12:24:28.454Z,10.57
2023-03-20T12:27:23.372Z,11.13
2023-03-20T12:30:15.753Z,12.82
2023-03-20T12:33:10.529Z,9.32
2023-03-20T12:35:58.493Z,12.90
2023-03-20T12:38:46.046Z,12.32
2023-03-20T12:42:04.763Z,11.35
2023-03-20T12:45:12.493Z,10.68
2023-03-20T12:48:19.824Z,9.63
2023-03-20T12:51:24.426Z,13.18
2023-03-20T12:54:22.475Z,12.60
2023-03-20T12:57:28.666Z,8.98
2023-03-20T13:00:32.163Z,15.95
2023-03-20T13:03:28.426Z,15.55
2023-03-20T13:06:21.562Z,9.93
2023-03-20T13:09:20.048Z,11.68
2023-03-20T13:12:35.591Z,15.57
2023-03-20T13:15:42.863Z,9.98
2023-03-20T13:18:49.168Z,8.88
2023-03-20T13:21:43.623Z,12.98
2023-03-20T13:24:33.829Z,13.50
2023-03-20T13:27:34.386Z,11.48
2023-03-20T13:30:50.427Z,11.80
2023-03-20T13:34:12.144Z,10.77
2023-03-20T13:37:19.905Z,8.93
2023-03-20T13:40:39.486Z,16.83
2023-03-20T13:43:35.996Z,11.30
2023-03-20T13:46:28.207Z,18.23
2023-03-20T13:49:37.837Z,9.90
2023-03-20T13:52:45.764Z,13.98
2023-03-20T13:56:01.938Z,12.73
2023-03-20T13:59:39.047Z,14.98
2023-03-20T14:02:31.217Z,11.88
2023-03-20T14:05:23.291Z,12.75
2023-03-20T14:08:38.744Z,14.65
2023-03-20T14:11:24.807Z,12.10
2023-03-20T14:14:31.870Z,14.55
2023-03-20T14:17:25.245Z,11.38
2023-03-20T14:20:16.642Z,6.65
2023-03-20T14:23:03.208Z,4.93
2023-03-20T14:25:49.519Z,6.18
2023-03-20T14:28:53.285Z,6.53
2023-03-20T14:31:42.275Z,6.72
2023-03-20T14:34:47.991Z,7.15
2023-03-20T14:37:39.600Z,14.85
2023-03-20T14:40:29.790Z,13.07
2023-03-20T14:43:52.020Z,10.23
2023-03-20T14:47:02.962Z,8.23
2023-03-20T14:49:53.556Z,11.27
2023-03-20T14:53:01.685Z,7.10
2023-03-20T14:55:55.769Z,10.35
2023-03-20T14:59:02.044Z,14.48
2023-03-20T15:01:53.802Z,12.68
2023-03-20T15:04:41.825Z,24.23
2023-03-20T15:07:30.438Z,25.65
2023-03-20T15:10:19.058Z,18.40
2023-03-20T15:13:07.846Z,12.68
2023-03-20T15:16:05.211Z,29.85
2023-03-20T15:18:52.461Z,17.30
2023-03-20T15:21:40.809Z,17.20
2023-03-20T15:24:28.855Z,14.43
2023-03-20T15:27:14.667Z,17.38
2023-03-20T15:30:01.134Z,13.70
2023-03-20T15:32:48.836Z,21.75
2023-03-20T15:35:35.040Z,21.38
2023-03-20T15:38:21.262Z,18.65
2023-03-20T15:41:08.247Z,21.25
2023-03-20T15:43:54.227Z,19.77
2023-03-20T15:46:41.034Z,27.98
2023-03-20T15:49:27.989Z,24.55
2023-03-20T15:52:22.262Z,21.92
2023-03-20T15:55:14.775Z,26.08
2023-03-20T15:58:02.297Z,24.70
2023-03-20T16:00:48.839Z,28.55
2023-03-20T16:03:38.271Z,27.70
2023-03-20T16:06:25.645Z,42.60
2023-03-20T16:09:15.261Z,35.13
2023-03-20T16:12:03.136Z,36.92
2023-03-20T16:14:50.005Z,31.63
2023-03-20T16:17:36.235Z,29.63
2023-03-20T16:20:22.555Z,35.90
2023-03-20T16:23:09.238Z,36.88
2023-03-20T16:26:01.167Z,38.90
2023-03-20T16:28:58.515Z,30.95
2023-03-20T16:32:06.886Z,27.45
2023-03-20T16:34:56.374Z,32.67
2023-03-20T16:37:44.787Z,31.60
2023-03-20T16:40:35.260Z,28.73
2023-03-20T16:43:29.569Z,29.20
2023-03-20T16:46:23.458Z,29.10
2023-03-20T16:49:44.550Z,41.60
2023-03-20T16:52:33.323Z,41.25
2023-03-20T16:55:24.213Z,34.85
2023-03-20T16:58:16.963Z,42.38
2023-03-20T17:01:15.844Z,38.28
2023-03-20T17:04:35.387Z,49.63
2023-03-20T17:07:28.053Z,41.13
2023-03-20T17:10:16.912Z,49.83
2023-03-20T17:13:02.873Z,48.67
2023-03-20T17:15:48.788Z,57.70
2023-03-20T17:18:35.496Z,48.85
2023-03-20T17:21:21.749Z,43.53
2023-03-20T17:24:08.277Z,53.90
2023-03-20T17:26:58.240Z,47.40
2023-03-20T17:29:45.106Z,52.38
2023-03-20T17:32:32.337Z,58.45
2023-03-20T17:35:18.475Z,49.05
2023-03-20T17:38:04.455Z,49.40
2023-03-20T17:40:51.347Z,56.33
2023-03-20T17:43:37.594Z,65.75
2023-03-20T17:46:28.925Z,53.55
2023-03-20T17:49:16.368Z,67.63
2023-03-20T17:52:02.393Z,75.10
2023-03-20T17:54:48.420Z,71.90
2023-03-20T17:57:37.116Z,80.60
2023-03-20T18:00:24.325Z,82.25
2023-03-20T18:03:11.162Z,63.33
2023-03-20T18:05:57.358Z,49.22
2023-03-20T18:08:43.231Z,41.33
2023-03-20T18:11:29.910Z,49.63
2023-03-20T18:14:18.873Z,38.38
2023-03-20T18:17:05.072Z,45.20
2023-03-20T18:19:50.979Z,42.65
2023-03-20T18:22:36.983Z,41.53
2023-03-20T18:25:25.962Z,39.05
2023-03-20T18:28:22.616Z,36.35
2023-03-20T18:31:08.951Z,42.60
2023-03-20T18:33:55.205Z,60.63
2023-03-20T18:36:41.159Z,48.65
2023-03-20T18:39:27.597Z,47.35
2023-03-20T18:42:13.420Z,47.63
2023-03-20T18:44:59.231Z,55.42
2023-03-20T18:47:45.667Z,48.05
2023-03-20T18:50:37.543Z,51.88
2023-03-20T18:53:24.217Z,40.38
2023-03-20T18:56:25.662Z,43.33
2023-03-20T18:59:12.890Z,43.90
2023-03-20T19:01:58.796Z,47.85
2023-03-20T19:04:44.525Z,49.75
2023-03-20T19:07:30.362Z,39.40
2023-03-20T19:10:25.024Z,48.33
2023-03-20T19:13:17.269Z,46.10
2023-03-20T19:16:03.340Z,49.00
2023-03-20T19:18:52.553Z,55.95
2023-03-20T19:21:38.759Z,61.28
2023-03-20T19:24:25.155Z,64.93
2023-03-20T19:27:17.443Z,59.65
2023-03-20T19:30:05.947Z,65.68
2023-03-20T19:32:52.105Z,50.05
2023-03-20T19:35:58.798Z,43.47
2023-03-20T19:38:43.826Z,35.28
2023-03-20T19:41:32.175Z,36.25
2023-03-20T19:44:19.121Z,33.42
2023-03-20T19:47:05.229Z,30.40
2023-03-20T19:49:51.413Z,38.47
2023-03-20T19:52:37.242Z,52.28
2023-03-20T19:55:25.054Z,37.03
2023-03-20T19:58:11.100Z,44.28
2023-03-20T20:01:11.645Z,47.10
2023-03-20T20:06:47.353Z,38.47
2023-03-20T20:09:33.791Z,28.77
2023-03-20T20:12:19.561Z,23.48
2023-03-20T20:15:07.878Z,21.50
2023-03-20T20:17:54.218Z,24.00
2023-03-20T20:21:24.546Z,20.48
2023-03-20T20:23:48.524Z,21.35
2023-03-20T20:26:39.013Z,24.00
2023-03-20T20:29:27.136Z,23.77
2023-03-20T20:32:13.275Z,22.48
2023-03-20T20:35:40.610Z,31.02
2023-03-20T20:41:12.239Z,27.83
2023-03-20T20:44:15.761Z,23.92
2023-03-20T20:47:02.304Z,32.75
2023-03-20T20:49:48.169Z,35.63
2023-03-20T20:52:35.800Z,37.35
2023-03-20T20:55:24.147Z,34.55
2023-03-20T20:58:11.462Z,29.65
2023-03-20T21:01:01.330Z,30.88
2023-03-20T21:03:47.340Z,29.38
2023-03-20T21:07:03.775Z,29.77
2023-03-20T21:09:40.454Z,29.25
2023-03-20T21:12:36.239Z,30.63
2023-03-20T21:15:26.698Z,30.35
2023-03-20T21:18:12.512Z,30.17
2023-03-20T21:21:10.174Z,29.23
2023-03-20T21:23:56.203Z,26.20
2023-03-20T21:26:42.044Z,28.35
2023-03-20T21:29:31.557Z,21.02
2023-03-20T21:32:20.797Z,19.67
2023-03-20T21:35:08.982Z,18.90
2023-03-20T21:41:08.075Z,16.40
2023-03-20T21:43:54.104Z,22.17
2023-03-20T21:47:09.701Z,24.25
2023-03-20T21:53:28.735Z,26.70
2023-03-20T21:56:40.230Z,25.63
2023-03-20T22:02:23.559Z,24.10
2023-03-20T22:21:22.333Z,27.45
2023-03-20T22:37:01.564Z,25.08
2023-03-20T22:45:37.993Z,25.83
2023-03-20T22:48:28.852Z,20.02
2023-03-20T22:51:14.534Z,23.27
2023-03-20T22:54:00.455Z,24.42
2023-03-20T22:56:46.494Z,25.02
2023-03-20T22:59:32.288Z,26.13
2023-03-20T23:02:18.129Z,23.23
2023-03-20T23:05:04.239Z,22.95
2023-03-20T23:07:50.280Z,24.80
2023-03-20T23:10:38.222Z,21.25
2023-03-20T23:13:24.467Z,21.88
2023-03-20T23:16:10.618Z,23.65
2023-03-20T23:18:56.964Z,21.38
2023-03-20T23:21:43.197Z,18.65
2023-03-20T23:24:29.309Z,23.50
2023-03-20T23:27:15.513Z,25.20
2023-03-20T23:30:01.602Z,22.67
2023-03-20T23:32:47.499Z,25.50
2023-03-20T23:35:33.535Z,22.63
2023-03-20T23:38:19.439Z,25.83
2023-03-20T23:41:06.000Z,22.63
2023-03-20T23:43:52.649Z,28.35
2023-03-20T23:46:38.523Z,22.40
2023-03-20T23:49:24.634Z,19.80
2023-03-20T23:52:10.381Z,19.27
2023-03-20T23:54:56.296Z,19.00
2023-03-20T23:57:42.387Z,27.77
